仙台空港の過去48時間の天気

仙台空港 (Sendai)

現在時刻: 4/22 22:03 JST (4/22 13:03 UTC) 以下の時間は現地時間です。

過去48時間のMETAR気象情報
時間 風向 風速(m/s) 視程 気温(℃) 湿度(%) 気圧(hPa) 天気現象
22 21:00 4 10km以上 11 58 1019
22 20:00 南南東 6 10km以上 11 67 1018
22 19:24 5 10km以上 12 62 1017
22 19:00 北西 3 10km以上 17 24 1016
22 18:00 北北西 7 10km以上 19 21 1016
22 17:00 北西 9 10km以上 21 17 1015
22 16:00 北西 8 10km以上 22 20 1013
22 15:00 北西 10 10km以上 23 20 1013
22 14:36 北西 8 10km以上 23 20 1012
22 14:00 北西 9 10km以上 24 22 1012
22 13:40 北西 9 10km以上 23 23 1012
22 13:00 西 6 10km以上 22 29 1013
22 12:38 南西 5 10km以上 22 35 1012
22 12:08 北西 10 10km以上 22 25 1012
22 12:00 北西 10 10km以上 23 25 1012
22 11:40 北西 7 10km以上 23 29 1012
22 11:00 東南東 5 10km以上 18 49 1013
22 10:00 南南東 3 10km以上 19 46 1013
22 09:00 不定 1 10km以上 18 45 1013
22 08:00 不定 1 10km以上 15 55 1013
22 07:00 不定 1 10km以上 13 62 1013
22 06:00 西 1 10km以上 9 81 1013
22 05:30 西南西 2 10km以上 9 76 1013
21 21:00 不定 1 10km以上 11 62 1012
21 20:00 不定 1 10km以上 11 62 1012
21 19:00 南南東 1 10km以上 11 62 1012
21 18:00 南東 1 10km以上 12 58 1012
21 17:00 南南東 3 10km以上 12 47 1012
21 16:00 南東 3 10km以上 13 41 1012
21 15:00 南東 4 10km以上 13 44 1011
21 14:00 南東 5 10km以上 14 33 1012
21 13:00 南東 5 10km以上 14 47 1012
21 12:00 南東 4 10km以上 14 47 1013
21 11:00 南西 3 10km以上 13 44 1014
21 10:00 西南西 3 10km以上 11 47 1015
21 09:00 南南西 2 10km以上 10 58 1015
21 08:00 西南西 2 10km以上 10 54 1015
21 07:00 北北東 2 10km以上 9 57 1015
21 06:00 2 10km以上 8 66 1015
21 05:30 西 2 10km以上 8 71 1015
RJSS 221200Z 19008KT 160V220 CAVOK 11/03 Q1019
RJSS 221100Z 16012KT CAVOK 11/05 Q1018
RJSS 221024Z 19010KT CAVOK 12/05 Q1017 RMK A3005
RJSS 221000Z 32006KT CAVOK 17/M04 Q1016
RJSS 220900Z 33013KT CAVOK 19/M04 Q1016
RJSS 220800Z 32018KT CAVOK 21/M05 Q1015
RJSS 220700Z 31016KT CAVOK 22/M02 Q1013
RJSS 220600Z 31019KT CAVOK 23/M01 Q1013
RJSS 220536Z 31015G25KT 9999 FEW050 23/M01 Q1012 RMK 1SC050 A2991
RJSS 220500Z 32017KT 9999 FEW050 24/01 Q1012
RJSS 220440Z 32017KT 9999 FEW050 23/01 Q1012 RMK 1SC050 A2990
RJSS 220400Z 26012KT 9999 FEW050 22/03 Q1013
RJSS 220338Z 23009KT 9999 FEW050 22/06 Q1012 RMK 1CU050 A2991
RJSS 220308Z 32020G32KT 9999 FEW050 22/01 Q1012 RMK 1CU050 A2990
RJSS 220300Z 32020KT 290V360 9999 FEW050 23/02 Q1012
RJSS 220240Z 32014KT 9999 FEW050 23/04 Q1012 RMK 1CU050 A2991
RJSS 220200Z 12009KT 9999 FEW050 18/07 Q1013
RJSS 220100Z 15006KT 9999 FEW040 19/07 Q1013
RJSS 220000Z VRB02KT 9999 FEW040 18/06 Q1013
RJSS 212300Z VRB02KT 9999 FEW040 15/06 Q1013
RJSS 212200Z VRB02KT 9999 FEW030 13/06 Q1013
RJSS 212100Z 26002KT 9999 FEW030 09/06 Q1013
RJSS 212030Z 25003KT 9999 FEW030 09/05 Q1013 RMK 1CU030 A2992
RJSS 211200Z VRB01KT CAVOK 11/04 Q1012
RJSS 211100Z VRB01KT 9999 FEW070 BKN090 11/04 Q1012
RJSS 211000Z 15002KT 9999 FEW070 BKN090 BKN/// 11/04 Q1012
RJSS 210900Z 14002KT 9999 FEW070 BKN090 12/04 Q1012
RJSS 210800Z 15005KT 9999 FEW050 BKN090 12/01 Q1012
RJSS 210700Z 14006KT 9999 FEW070 BKN090 13/M00 Q1012
RJSS 210600Z 13008KT 9999 FEW070 BKN090 13/01 Q1011
RJSS 210500Z 14009KT 9999 FEW050 BKN090 BKN/// 14/M02 Q1012
RJSS 210400Z 13009KT 9999 FEW050 BKN090 14/03 Q1012
RJSS 210300Z 13007KT 9999 FEW050 BKN140 BKN/// 14/03 Q1013
RJSS 210200Z 23005KT 9999 FEW050 BKN140 BKN/// 13/01 Q1014
RJSS 210100Z 25006KT 9999 FEW030 SCT090 BKN110 11/00 Q1015
RJSS 210000Z 21003KT 9999 FEW020 BKN120 10/02 Q1015
RJSS 202300Z 24003KT 210V290 9999 FEW020 BKN120 BKN130 10/01 Q1015
RJSS 202200Z 03003KT 330V060 9999 FEW030 BKN100 BKN120 09/01 Q1015
RJSS 202100Z 35003KT 320V020 9999 FEW030 BKN100 BKN120 08/02 Q1015
RJSS 202030Z 28004KT 9999 FEW030 BKN110 BKN130 08/03 Q1015 RMK 1SC030 5AC110 7AC130 A3000